sensor_id;sensor_type;location;lat;lon;timestamp;temperature;humidity
11079;DHT22;5592;49.234;7.268;2023-06-05T00:00:52;8.70;99.90
11079;DHT22;5592;49.234;7.268;2023-06-05T00:03:18;8.70;99.90
11079;DHT22;5592;49.234;7.268;2023-06-05T00:05:44;8.70;99.90
11079;DHT22;5592;49.234;7.268;2023-06-05T00:08:09;8.60;99.90
11079;DHT22;5592;49.234;7.268;2023-06-05T00:10:35;8.60;99.90
11079;DHT22;5592;49.234;7.268;2023-06-05T00:13:00;8.50;99.90
11079;DHT22;5592;49.234;7.268;2023-06-05T00:15:26;8.40;99.90
11079;DHT22;5592;49.234;7.268;2023-06-05T00:17:51;8.40;99.90
11079;DHT22;5592;49.234;7.268;2023-06-05T00:20:17;8.50;99.90
11079;DHT22;5592;49.234;7.268;2023-06-05T00:22:43;8.50;99.90
11079;DHT22;5592;49.234;7.268;2023-06-05T00:25:12;8.40;99.90
11079;DHT22;5592;49.234;7.268;2023-06-05T00:27:38;8.40;99.90
11079;DHT22;5592;49.234;7.268;2023-06-05T00:30:07;8.30;99.90
11079;DHT22;5592;49.234;7.268;2023-06-05T00:32:33;8.20;99.90
11079;DHT22;5592;49.234;7.268;2023-06-05T00:34:58;8.20;99.90
11079;DHT22;5592;49.234;7.268;2023-06-05T00:37:24;8.20;99.90
11079;DHT22;5592;49.234;7.268;2023-06-05T00:39:50;8.20;99.90
11079;DHT22;5592;49.234;7.268;2023-06-05T00:42:16;8.20;99.90
11079;DHT22;5592;49.234;7.268;2023-06-05T00:44:41;8.10;99.90
11079;DHT22;5592;49.234;7.268;2023-06-05T00:47:07;8.10;99.90
11079;DHT22;5592;49.234;7.268;2023-06-05T00:49:33;8.10;99.90
11079;DHT22;5592;49.234;7.268;2023-06-05T00:51:59;8.10;99.90
11079;DHT22;5592;49.234;7.268;2023-06-05T00:54:24;8.10;99.90
11079;DHT22;5592;49.234;7.268;2023-06-05T00:56:50;8.10;99.90
11079;DHT22;5592;49.234;7.268;2023-06-05T00:59:18;8.00;99.90
11079;DHT22;5592;49.234;7.268;2023-06-05T01:01:43;8.00;99.90
11079;DHT22;5592;49.234;7.268;2023-06-05T01:04:10;8.00;99.90
11079;DHT22;5592;49.234;7.268;2023-06-05T01:06:36;8.00;99.90
11079;DHT22;5592;49.234;7.268;2023-06-05T01:09:04;8.00;99.90
11079;DHT22;5592;49.234;7.268;2023-06-05T01:11:44;8.00;99.90
11079;DHT22;5592;49.234;7.268;2023-06-05T01:14:21;8.00;99.90
11079;DHT22;5592;49.234;7.268;2023-06-05T01:16:53;7.90;99.90
11079;DHT22;5592;49.234;7.268;2023-06-05T01:19:21;7.90;99.90
11079;DHT22;5592;49.234;7.268;2023-06-05T01:21:50;7.90;99.90
11079;DHT22;5592;49.234;7.268;2023-06-05T01:24:17;7.90;99.90
11079;DHT22;5592;49.234;7.268;2023-06-05T01:27:19;7.90;99.90
11079;DHT22;5592;49.234;7.268;2023-06-05T01:29:53;7.90;99.90
11079;DHT22;5592;49.234;7.268;2023-06-05T01:32:46;7.90;99.90
11079;DHT22;5592;49.234;7.268;2023-06-05T01:35:14;7.90;99.90
11079;DHT22;5592;49.234;7.268;2023-06-05T01:37:47;7.80;99.90
11079;DHT22;5592;49.234;7.268;2023-06-05T01:40:19;7.80;99.90
11079;DHT22;5592;49.234;7.268;2023-06-05T01:42:46;7.80;99.90
11079;DHT22;5592;49.234;7.268;2023-06-05T01:45:13;7.70;99.90
11079;DHT22;5592;49.234;7.268;2023-06-05T01:47:39;7.70;99.90
11079;DHT22;5592;49.234;7.268;2023-06-05T01:50:06;7.60;99.90
11079;DHT22;5592;49.234;7.268;2023-06-05T01:52:34;7.70;99.90
11079;DHT22;5592;49.234;7.268;2023-06-05T01:55:01;7.60;99.90
11079;DHT22;5592;49.234;7.268;2023-06-05T01:57:27;7.60;99.90
11079;DHT22;5592;49.234;7.268;2023-06-05T01:59:54;7.50;99.90
11079;DHT22;5592;49.234;7.268;2023-06-05T02:02:20;7.50;99.90
11079;DHT22;5592;49.234;7.268;2023-06-05T02:04:47;7.40;99.90
11079;DHT22;5592;49.234;7.268;2023-06-05T02:07:13;7.40;99.90
11079;DHT22;5592;49.234;7.268;2023-06-05T02:09:43;7.50;99.90
11079;DHT22;5592;49.234;7.268;2023-06-05T02:12:08;7.50;99.90
11079;DHT22;5592;49.234;7.268;2023-06-05T02:14:34;7.40;99.90
11079;DHT22;5592;49.234;7.268;2023-06-05T02:17:01;7.40;99.90
11079;DHT22;5592;49.234;7.268;2023-06-05T02:19:30;7.40;99.90
11079;DHT22;5592;49.234;7.268;2023-06-05T02:21:56;7.40;99.90
11079;DHT22;5592;49.234;7.268;2023-06-05T02:24:21;7.40;99.90
11079;DHT22;5592;49.234;7.268;2023-06-05T02:26:48;7.30;99.90
11079;DHT22;5592;49.234;7.268;2023-06-05T02:29:13;7.40;99.90
11079;DHT22;5592;49.234;7.268;2023-06-05T02:31:39;7.30;99.90
11079;DHT22;5592;49.234;7.268;2023-06-05T02:34:05;7.30;99.90
11079;DHT22;5592;49.234;7.268;2023-06-05T02:36:30;7.20;99.90
11079;DHT22;5592;49.234;7.268;2023-06-05T02:39:02;7.20;99.90
11079;DHT22;5592;49.234;7.268;2023-06-05T02:41:30;7.20;99.90
11079;DHT22;5592;49.234;7.268;2023-06-05T02:43:55;7.20;99.90
11079;DHT22;5592;49.234;7.268;2023-06-05T02:46:21;7.10;99.90
11079;DHT22;5592;49.234;7.268;2023-06-05T02:48:47;7.10;99.90
11079;DHT22;5592;49.234;7.268;2023-06-05T02:51:13;7.10;99.90
11079;DHT22;5592;49.234;7.268;2023-06-05T02:53:38;7.00;99.90
11079;DHT22;5592;49.234;7.268;2023-06-05T02:56:05;7.00;99.90
11079;DHT22;5592;49.234;7.268;2023-06-05T02:58:30;7.00;99.90
11079;DHT22;5592;49.234;7.268;2023-06-05T03:01:01;6.90;99.90
11079;DHT22;5592;49.234;7.268;2023-06-05T03:03:29;6.80;99.90
11079;DHT22;5592;49.234;7.268;2023-06-05T03:05:57;6.80;99.90
11079;DHT22;5592;49.234;7.268;2023-06-05T03:08:22;6.80;99.90
11079;DHT22;5592;49.234;7.268;2023-06-05T03:10:48;6.80;99.90
11079;DHT22;5592;49.234;7.268;2023-06-05T03:13:13;6.70;99.90
11079;DHT22;5592;49.234;7.268;2023-06-05T03:15:39;6.70;99.90
11079;DHT22;5592;49.234;7.268;2023-06-05T03:18:05;6.70;99.90
11079;DHT22;5592;49.234;7.268;2023-06-05T03:20:30;6.70;99.90
11079;DHT22;5592;49.234;7.268;2023-06-05T03:22:56;6.70;99.90
11079;DHT22;5592;49.234;7.268;2023-06-05T03:25:22;6.70;99.90
11079;DHT22;5592;49.234;7.268;2023-06-05T03:27:48;6.70;99.90
11079;DHT22;5592;49.234;7.268;2023-06-05T03:30:14;6.70;99.90
11079;DHT22;5592;49.234;7.268;2023-06-05T03:32:41;6.70;99.90
11079;DHT22;5592;49.234;7.268;2023-06-05T03:35:07;6.80;99.90
11079;DHT22;5592;49.234;7.268;2023-06-05T03:37:34;6.80;99.90
11079;DHT22;5592;49.234;7.268;2023-06-05T03:40:01;6.80;99.90
11079;DHT22;5592;49.234;7.268;2023-06-05T03:42:26;6.80;99.90
11079;DHT22;5592;49.234;7.268;2023-06-05T03:44:52;6.80;99.90
11079;DHT22;5592;49.234;7.268;2023-06-05T03:47:18;6.90;99.90
11079;DHT22;5592;49.234;7.268;2023-06-05T03:49:47;6.90;99.90
11079;DHT22;5592;49.234;7.268;2023-06-05T03:52:15;6.90;99.90
11079;DHT22;5592;49.234;7.268;2023-06-05T03:54:42;7.00;99.90
11079;DHT22;5592;49.234;7.268;2023-06-05T03:57:11;7.10;99.90
11079;DHT22;5592;49.234;7.268;2023-06-05T03:59:37;7.10;99.90
11079;DHT22;5592;49.234;7.268;2023-06-05T04:02:03;7.10;99.90
11079;DHT22;5592;49.234;7.268;2023-06-05T04:04:30;7.20;99.90
11079;DHT22;5592;49.234;7.268;2023-06-05T04:06:55;7.20;99.90
11079;DHT22;5592;49.234;7.268;2023-06-05T04:09:21;7.30;99.90
11079;DHT22;5592;49.234;7.268;2023-06-05T04:11:46;7.40;99.90
11079;DHT22;5592;49.234;7.268;2023-06-05T04:14:13;7.50;99.90
11079;DHT22;5592;49.234;7.268;2023-06-05T04:16:39;7.60;99.90
11079;DHT22;5592;49.234;7.268;2023-06-05T04:19:07;7.70;99.90
11079;DHT22;5592;49.234;7.268;2023-06-05T04:21:35;7.70;99.90
11079;DHT22;5592;49.234;7.268;2023-06-05T04:24:02;7.80;99.90
11079;DHT22;5592;49.234;7.268;2023-06-05T04:26:35;8.00;99.90
11079;DHT22;5592;49.234;7.268;2023-06-05T04:29:01;8.10;99.90
11079;DHT22;5592;49.234;7.268;2023-06-05T04:31:42;8.20;99.90
11079;DHT22;5592;49.234;7.268;2023-06-05T04:34:08;8.40;99.90
11079;DHT22;5592;49.234;7.268;2023-06-05T04:36:34;8.60;99.90
11079;DHT22;5592;49.234;7.268;2023-06-05T04:39:00;8.70;99.90
11079;DHT22;5592;49.234;7.268;2023-06-05T04:41:33;9.00;99.90
11079;DHT22;5592;49.234;7.268;2023-06-05T04:44:00;9.20;99.90
11079;DHT22;5592;49.234;7.268;2023-06-05T04:46:26;9.50;99.90
11079;DHT22;5592;49.234;7.268;2023-06-05T04:48:53;9.80;99.90
11079;DHT22;5592;49.234;7.268;2023-06-05T04:51:22;10.10;99.90
11079;DHT22;5592;49.234;7.268;2023-06-05T04:53:48;10.60;99.90
11079;DHT22;5592;49.234;7.268;2023-06-05T04:56:18;11.30;99.90
11079;DHT22;5592;49.234;7.268;2023-06-05T04:58:44;12.30;99.90
11079;DHT22;5592;49.234;7.268;2023-06-05T05:01:09;13.50;99.90
11079;DHT22;5592;49.234;7.268;2023-06-05T05:03:35;15.20;99.90
11079;DHT22;5592;49.234;7.268;2023-06-05T05:06:01;16.60;99.90
11079;DHT22;5592;49.234;7.268;2023-06-05T05:08:27;17.90;99.90
11079;DHT22;5592;49.234;7.268;2023-06-05T05:10:53;18.60;99.90
11079;DHT22;5592;49.234;7.268;2023-06-05T05:13:18;19.30;99.90
11079;DHT22;5592;49.234;7.268;2023-06-05T05:15:44;20.20;99.90
11079;DHT22;5592;49.234;7.268;2023-06-05T05:18:11;21.00;99.90
11079;DHT22;5592;49.234;7.268;2023-06-05T05:20:36;21.90;99.90
11079;DHT22;5592;49.234;7.268;2023-06-05T05:23:03;22.60;99.90
11079;DHT22;5592;49.234;7.268;2023-06-05T05:25:29;23.10;99.90
11079;DHT22;5592;49.234;7.268;2023-06-05T05:27:55;23.60;99.90
11079;DHT22;5592;49.234;7.268;2023-06-05T05:30:20;24.00;99.90
11079;DHT22;5592;49.234;7.268;2023-06-05T05:32:46;24.00;99.90
11079;DHT22;5592;49.234;7.268;2023-06-05T05:35:11;24.40;99.90
11079;DHT22;5592;49.234;7.268;2023-06-05T05:37:37;25.10;99.90
11079;DHT22;5592;49.234;7.268;2023-06-05T05:40:05;25.80;95.30
11079;DHT22;5592;49.234;7.268;2023-06-05T05:42:32;26.10;95.20
11079;DHT22;5592;49.234;7.268;2023-06-05T05:44:59;26.40;91.80
11079;DHT22;5592;49.234;7.268;2023-06-05T05:47:25;27.10;90.50
11079;DHT22;5592;49.234;7.268;2023-06-05T05:49:50;27.20;88.70
11079;DHT22;5592;49.234;7.268;2023-06-05T05:52:16;27.60;84.90
11079;DHT22;5592;49.234;7.268;2023-06-05T05:54:45;28.10;80.90
11079;DHT22;5592;49.234;7.268;2023-06-05T05:57:11;28.50;78.90
11079;DHT22;5592;49.234;7.268;2023-06-05T05:59:39;28.90;75.70
11079;DHT22;5592;49.234;7.268;2023-06-05T06:02:06;29.00;75.10
11079;DHT22;5592;49.234;7.268;2023-06-05T06:04:36;29.20;72.30
11079;DHT22;5592;49.234;7.268;2023-06-05T06:07:02;29.20;71.70
11079;DHT22;5592;49.234;7.268;2023-06-05T06:09:29;29.70;71.90
11079;DHT22;5592;49.234;7.268;2023-06-05T06:11:54;30.20;68.70
11079;DHT22;5592;49.234;7.268;2023-06-05T06:14:21;30.70;65.90
11079;DHT22;5592;49.234;7.268;2023-06-05T06:16:47;30.90;60.90
11079;DHT22;5592;49.234;7.268;2023-06-05T06:19:15;31.00;58.50
11079;DHT22;5592;49.234;7.268;2023-06-05T06:21:41;31.30;61.20
11079;DHT22;5592;49.234;7.268;2023-06-05T06:24:12;31.30;60.70
11079;DHT22;5592;49.234;7.268;2023-06-05T06:26:42;31.50;57.10
11079;DHT22;5592;49.234;7.268;2023-06-05T06:29:28;31.70;58.50
11079;DHT22;5592;49.234;7.268;2023-06-05T06:32:00;31.70;57.90
11079;DHT22;5592;49.234;7.268;2023-06-05T06:34:50;31.60;57.20
11079;DHT22;5592;49.234;7.268;2023-06-05T06:37:16;31.90;57.30
11079;DHT22;5592;49.234;7.268;2023-06-05T06:39:46;32.10;56.40
11079;DHT22;5592;49.234;7.268;2023-06-05T06:42:13;32.00;57.10
11079;DHT22;5592;49.234;7.268;2023-06-05T06:44:41;32.20;55.80
11079;DHT22;5592;49.234;7.268;2023-06-05T06:47:08;32.20;56.60
11079;DHT22;5592;49.234;7.268;2023-06-05T06:49:34;32.20;54.80
11079;DHT22;5592;49.234;7.268;2023-06-05T06:52:05;32.60;53.40
11079;DHT22;5592;49.234;7.268;2023-06-05T06:54:31;33.00;51.90
11079;DHT22;5592;49.234;7.268;2023-06-05T06:56:56;33.30;54.30
11079;DHT22;5592;49.234;7.268;2023-06-05T06:59:22;32.90;53.00
11079;DHT22;5592;49.234;7.268;2023-06-05T07:02:08;33.20;53.80
11079;DHT22;5592;49.234;7.268;2023-06-05T07:04:34;33.70;52.00
11079;DHT22;5592;49.234;7.268;2023-06-05T07:07:00;33.90;53.40
11079;DHT22;5592;49.234;7.268;2023-06-05T07:09:26;33.80;50.80
11079;DHT22;5592;49.234;7.268;2023-06-05T07:11:54;33.80;52.40
11079;DHT22;5592;49.234;7.268;2023-06-05T07:14:19;34.00;53.70
11079;DHT22;5592;49.234;7.268;2023-06-05T07:16:45;34.40;49.70
11079;DHT22;5592;49.234;7.268;2023-06-05T07:19:13;34.60;50.50
11079;DHT22;5592;49.234;7.268;2023-06-05T07:21:38;34.90;49.90
11079;DHT22;5592;49.234;7.268;2023-06-05T07:24:05;34.70;50.10
11079;DHT22;5592;49.234;7.268;2023-06-05T07:26:31;35.10;49.60
11079;DHT22;5592;49.234;7.268;2023-06-05T07:28:57;35.60;49.30
11079;DHT22;5592;49.234;7.268;2023-06-05T07:31:23;35.60;48.50
11079;DHT22;5592;49.234;7.268;2023-06-05T07:33:48;35.30;50.00
11079;DHT22;5592;49.234;7.268;2023-06-05T07:36:14;35.40;48.90
11079;DHT22;5592;49.234;7.268;2023-06-05T07:38:40;35.30;49.20
11079;DHT22;5592;49.234;7.268;2023-06-05T07:41:08;35.50;50.10
11079;DHT22;5592;49.234;7.268;2023-06-05T07:43:34;35.80;48.30
11079;DHT22;5592;49.234;7.268;2023-06-05T07:45:59;36.20;47.10
11079;DHT22;5592;49.234;7.268;2023-06-05T07:48:25;36.20;49.20
11079;DHT22;5592;49.234;7.268;2023-06-05T07:50:52;35.90;46.90
11079;DHT22;5592;49.234;7.268;2023-06-05T07:53:18;36.20;50.90
11079;DHT22;5592;49.234;7.268;2023-06-05T07:55:44;35.90;48.70
11079;DHT22;5592;49.234;7.268;2023-06-05T07:58:12;36.00;46.60
11079;DHT22;5592;49.234;7.268;2023-06-05T08:00:38;36.40;46.00
11079;DHT22;5592;49.234;7.268;2023-06-05T08:03:03;36.10;47.30
11079;DHT22;5592;49.234;7.268;2023-06-05T08:05:29;36.10;48.00
11079;DHT22;5592;49.234;7.268;2023-06-05T08:07:55;36.40;49.30
11079;DHT22;5592;49.234;7.268;2023-06-05T08:10:20;36.40;46.40
11079;DHT22;5592;49.234;7.268;2023-06-05T08:12:46;36.90;48.10
11079;DHT22;5592;49.234;7.268;2023-06-05T08:15:14;37.10;46.30
11079;DHT22;5592;49.234;7.268;2023-06-05T08:17:40;37.40;45.60
11079;DHT22;5592;49.234;7.268;2023-06-05T08:20:06;37.40;48.10
11079;DHT22;5592;49.234;7.268;2023-06-05T08:22:34;37.30;46.00
11079;DHT22;5592;49.234;7.268;2023-06-05T08:24:59;37.10;46.80
11079;DHT22;5592;49.234;7.268;2023-06-05T08:27:25;37.10;45.80
11079;DHT22;5592;49.234;7.268;2023-06-05T08:29:51;36.40;46.30
11079;DHT22;5592;49.234;7.268;2023-06-05T08:32:16;36.40;44.90
11079;DHT22;5592;49.234;7.268;2023-06-05T08:34:44;36.40;46.10
11079;DHT22;5592;49.234;7.268;2023-06-05T08:37:09;36.40;45.30
11079;DHT22;5592;49.234;7.268;2023-06-05T08:39:35;36.00;47.90
11079;DHT22;5592;49.234;7.268;2023-06-05T08:42:04;36.00;49.60
11079;DHT22;5592;49.234;7.268;2023-06-05T08:44:31;36.00;46.40
11079;DHT22;5592;49.234;7.268;2023-06-05T08:47:02;35.50;47.40
11079;DHT22;5592;49.234;7.268;2023-06-05T08:49:29;35.20;47.10
11079;DHT22;5592;49.234;7.268;2023-06-05T08:52:00;35.80;45.20
11079;DHT22;5592;49.234;7.268;2023-06-05T08:54:31;36.10;46.90
11079;DHT22;5592;49.234;7.268;2023-06-05T08:56:59;36.20;47.60
11079;DHT22;5592;49.234;7.268;2023-06-05T08:59:25;36.00;45.50
11079;DHT22;5592;49.234;7.268;2023-06-05T09:01:52;35.90;47.60
11079;DHT22;5592;49.234;7.268;2023-06-05T09:04:19;36.10;46.70
11079;DHT22;5592;49.234;7.268;2023-06-05T09:06:45;36.70;47.80
11079;DHT22;5592;49.234;7.268;2023-06-05T09:09:14;36.90;45.90
11079;DHT22;5592;49.234;7.268;2023-06-05T09:11:39;37.10;45.50
11079;DHT22;5592;49.234;7.268;2023-06-05T09:14:05;36.90;45.70
11079;DHT22;5592;49.234;7.268;2023-06-05T09:16:36;37.00;46.90
11079;DHT22;5592;49.234;7.268;2023-06-05T09:19:03;37.00;45.40
11079;DHT22;5592;49.234;7.268;2023-06-05T09:21:32;37.40;47.60
11079;DHT22;5592;49.234;7.268;2023-06-05T09:24:17;37.10;44.40
11079;DHT22;5592;49.234;7.268;2023-06-05T09:29:28;36.50;44.80
11079;DHT22;5592;49.234;7.268;2023-06-05T09:32:02;37.00;46.10
11079;DHT22;5592;49.234;7.268;2023-06-05T09:34:30;37.20;43.00
11079;DHT22;5592;49.234;7.268;2023-06-05T09:36:59;36.90;47.00
11079;DHT22;5592;49.234;7.268;2023-06-05T09:39:26;36.80;44.40
11079;DHT22;5592;49.234;7.268;2023-06-05T09:41:54;37.00;43.80
11079;DHT22;5592;49.234;7.268;2023-06-05T09:44:20;36.90;45.30
11079;DHT22;5592;49.234;7.268;2023-06-05T09:46:56;37.30;44.30
11079;DHT22;5592;49.234;7.268;2023-06-05T09:49:25;37.40;44.00
11079;DHT22;5592;49.234;7.268;2023-06-05T09:51:51;36.70;45.90
11079;DHT22;5592;49.234;7.268;2023-06-05T09:54:17;36.40;49.60
11079;DHT22;5592;49.234;7.268;2023-06-05T09:56:48;36.70;47.50
11079;DHT22;5592;49.234;7.268;2023-06-05T09:59:19;36.10;46.10
11079;DHT22;5592;49.234;7.268;2023-06-05T10:01:50;36.20;46.30
11079;DHT22;5592;49.234;7.268;2023-06-05T10:04:20;36.00;45.90
11079;DHT22;5592;49.234;7.268;2023-06-05T10:06:46;35.90;47.70
11079;DHT22;5592;49.234;7.268;2023-06-05T10:09:14;36.00;45.40
11079;DHT22;5592;49.234;7.268;2023-06-05T10:11:41;36.10;44.40
11079;DHT22;5592;49.234;7.268;2023-06-05T10:14:08;36.40;45.80
11079;DHT22;5592;49.234;7.268;2023-06-05T10:16:35;36.30;45.60
11079;DHT22;5592;49.234;7.268;2023-06-05T10:19:03;36.70;46.20
11079;DHT22;5592;49.234;7.268;2023-06-05T10:21:32;36.80;46.00
11079;DHT22;5592;49.234;7.268;2023-06-05T10:24:06;36.40;43.30
11079;DHT22;5592;49.234;7.268;2023-06-05T10:35:44;36.10;43.70
11079;DHT22;5592;49.234;7.268;2023-06-05T10:38:20;35.90;45.10
11079;DHT22;5592;49.234;7.268;2023-06-05T10:40:58;35.60;46.60
11079;DHT22;5592;49.234;7.268;2023-06-05T10:43:36;35.00;50.40
11079;DHT22;5592;49.234;7.268;2023-06-05T10:46:37;34.80;46.90
11079;DHT22;5592;49.234;7.268;2023-06-05T10:49:08;34.90;47.10
11079;DHT22;5592;49.234;7.268;2023-06-05T10:59:22;34.70;45.40
11079;DHT22;5592;49.234;7.268;2023-06-05T11:07:29;34.10;44.30
11079;DHT22;5592;49.234;7.268;2023-06-05T11:10:05;33.80;48.50
11079;DHT22;5592;49.234;7.268;2023-06-05T11:17:45;33.80;45.80
11079;DHT22;5592;49.234;7.268;2023-06-05T11:30:30;31.00;48.70
11079;DHT22;5592;49.234;7.268;2023-06-05T11:33:06;29.90;49.10
11079;DHT22;5592;49.234;7.268;2023-06-05T11:35:34;29.70;54.60
11079;DHT22;5592;49.234;7.268;2023-06-05T11:40:42;30.30;50.30
11079;DHT22;5592;49.234;7.268;2023-06-05T11:43:10;30.30;49.40
11079;DHT22;5592;49.234;7.268;2023-06-05T11:45:38;30.40;50.00
11079;DHT22;5592;49.234;7.268;2023-06-05T11:48:13;30.10;48.70
11079;DHT22;5592;49.234;7.268;2023-06-05T11:50:51;30.00;48.30
11079;DHT22;5592;49.234;7.268;2023-06-05T11:53:18;30.00;53.60
11079;DHT22;5592;49.234;7.268;2023-06-05T11:55:44;30.40;50.80
11079;DHT22;5592;49.234;7.268;2023-06-05T11:58:25;30.20;53.40
11079;DHT22;5592;49.234;7.268;2023-06-05T12:00:51;30.30;53.40
11079;DHT22;5592;49.234;7.268;2023-06-05T12:03:21;30.30;51.80
11079;DHT22;5592;49.234;7.268;2023-06-05T12:05:47;30.30;50.00
11079;DHT22;5592;49.234;7.268;2023-06-05T12:08:27;30.40;52.90
11079;DHT22;5592;49.234;7.268;2023-06-05T12:10:55;30.40;52.50
11079;DHT22;5592;49.234;7.268;2023-06-05T12:13:49;30.10;49.50
11079;DHT22;5592;49.234;7.268;2023-06-05T12:16:16;30.30;53.20
11079;DHT22;5592;49.234;7.268;2023-06-05T12:18:43;30.40;48.90
11079;DHT22;5592;49.234;7.268;2023-06-05T12:21:19;30.50;51.90
11079;DHT22;5592;49.234;7.268;2023-06-05T12:23:45;30.40;48.00
11079;DHT22;5592;49.234;7.268;2023-06-05T12:26:11;29.90;51.60
11079;DHT22;5592;49.234;7.268;2023-06-05T12:28:37;29.60;50.90
11079;DHT22;5592;49.234;7.268;2023-06-05T12:31:02;29.60;54.70
11079;DHT22;5592;49.234;7.268;2023-06-05T12:33:28;29.60;54.00
11079;DHT22;5592;49.234;7.268;2023-06-05T12:36:07;29.70;53.90
11079;DHT22;5592;49.234;7.268;2023-06-05T12:38:42;29.70;52.90
11079;DHT22;5592;49.234;7.268;2023-06-05T12:41:08;29.60;51.90
11079;DHT22;5592;49.234;7.268;2023-06-05T12:43:37;29.80;51.90
11079;DHT22;5592;49.234;7.268;2023-06-05T12:46:02;29.60;51.70
11079;DHT22;5592;49.234;7.268;2023-06-05T12:48:28;29.10;49.10
11079;DHT22;5592;49.234;7.268;2023-06-05T12:50:54;28.30;50.00
11079;DHT22;5592;49.234;7.268;2023-06-05T12:53:21;28.00;51.30
11079;DHT22;5592;49.234;7.268;2023-06-05T12:55:46;27.80;51.80
11079;DHT22;5592;49.234;7.268;2023-06-05T12:58:12;28.10;53.60
11079;DHT22;5592;49.234;7.268;2023-06-05T13:00:37;28.10;55.60
11079;DHT22;5592;49.234;7.268;2023-06-05T13:03:03;28.30;49.10
11079;DHT22;5592;49.234;7.268;2023-06-05T13:05:30;28.30;50.10
11079;DHT22;5592;49.234;7.268;2023-06-05T13:07:57;28.20;50.00
11079;DHT22;5592;49.234;7.268;2023-06-05T13:10:23;28.10;52.70
11079;DHT22;5592;49.234;7.268;2023-06-05T13:12:48;28.30;50.50
11079;DHT22;5592;49.234;7.268;2023-06-05T13:15:14;28.30;49.10
11079;DHT22;5592;49.234;7.268;2023-06-05T13:17:40;28.20;49.30
11079;DHT22;5592;49.234;7.268;2023-06-05T13:20:06;28.10;53.30
11079;DHT22;5592;49.234;7.268;2023-06-05T13:22:32;27.90;51.20
11079;DHT22;5592;49.234;7.268;2023-06-05T13:24:58;27.80;51.70
11079;DHT22;5592;49.234;7.268;2023-06-05T13:27:23;27.70;51.70
11079;DHT22;5592;49.234;7.268;2023-06-05T13:29:49;27.90;50.40
11079;DHT22;5592;49.234;7.268;2023-06-05T13:32:14;27.90;50.00
11079;DHT22;5592;49.234;7.268;2023-06-05T13:34:40;28.10;51.40
11079;DHT22;5592;49.234;7.268;2023-06-05T13:37:06;28.00;50.00
11079;DHT22;5592;49.234;7.268;2023-06-05T13:39:31;27.50;51.40
11079;DHT22;5592;49.234;7.268;2023-06-05T13:41:57;27.30;50.30
11079;DHT22;5592;49.234;7.268;2023-06-05T13:44:22;27.40;51.00
11079;DHT22;5592;49.234;7.268;2023-06-05T13:46:49;27.40;52.30
11079;DHT22;5592;49.234;7.268;2023-06-05T13:49:14;27.50;53.70
11079;DHT22;5592;49.234;7.268;2023-06-05T13:51:41;27.30;51.00
11079;DHT22;5592;49.234;7.268;2023-06-05T13:54:07;27.30;51.20
11079;DHT22;5592;49.234;7.268;2023-06-05T13:56:32;27.20;50.80
11079;DHT22;5592;49.234;7.268;2023-06-05T13:58:58;27.30;51.60
11079;DHT22;5592;49.234;7.268;2023-06-05T14:01:24;27.40;50.30
11079;DHT22;5592;49.234;7.268;2023-06-05T14:03:50;27.30;51.70
11079;DHT22;5592;49.234;7.268;2023-06-05T14:06:17;27.30;51.00
11079;DHT22;5592;49.234;7.268;2023-06-05T14:08:42;27.30;50.20
11079;DHT22;5592;49.234;7.268;2023-06-05T14:11:08;27.30;51.50
11079;DHT22;5592;49.234;7.268;2023-06-05T14:13:38;27.00;49.70
11079;DHT22;5592;49.234;7.268;2023-06-05T14:16:03;26.70;51.80
11079;DHT22;5592;49.234;7.268;2023-06-05T14:18:30;26.90;52.80
11079;DHT22;5592;49.234;7.268;2023-06-05T14:20:56;27.10;50.00
11079;DHT22;5592;49.234;7.268;2023-06-05T14:23:21;27.20;50.30
11079;DHT22;5592;49.234;7.268;2023-06-05T14:25:49;27.20;52.10
11079;DHT22;5592;49.234;7.268;2023-06-05T14:28:15;27.20;52.40
11079;DHT22;5592;49.234;7.268;2023-06-05T14:30:41;27.10;49.80
11079;DHT22;5592;49.234;7.268;2023-06-05T14:33:06;26.90;50.20
11079;DHT22;5592;49.234;7.268;2023-06-05T14:35:32;26.60;52.30
11079;DHT22;5592;49.234;7.268;2023-06-05T14:37:57;26.60;52.70
11079;DHT22;5592;49.234;7.268;2023-06-05T14:40:23;26.60;52.30
11079;DHT22;5592;49.234;7.268;2023-06-05T14:42:49;26.60;50.90
11079;DHT22;5592;49.234;7.268;2023-06-05T14:45:15;26.60;52.40
11079;DHT22;5592;49.234;7.268;2023-06-05T14:47:40;26.70;51.90
11079;DHT22;5592;49.234;7.268;2023-06-05T14:50:06;26.80;51.10
11079;DHT22;5592;49.234;7.268;2023-06-05T14:52:33;26.80;50.80
11079;DHT22;5592;49.234;7.268;2023-06-05T14:54:58;26.80;50.90
11079;DHT22;5592;49.234;7.268;2023-06-05T14:57:24;26.50;51.00
11079;DHT22;5592;49.234;7.268;2023-06-05T14:59:50;26.30;50.70
11079;DHT22;5592;49.234;7.268;2023-06-05T15:02:15;26.10;49.80
11079;DHT22;5592;49.234;7.268;2023-06-05T15:04:41;25.90;51.80
11079;DHT22;5592;49.234;7.268;2023-06-05T15:07:07;25.90;53.20
11079;DHT22;5592;49.234;7.268;2023-06-05T15:09:32;26.00;54.60
11079;DHT22;5592;49.234;7.268;2023-06-05T15:11:58;26.10;52.70
11079;DHT22;5592;49.234;7.268;2023-06-05T15:14:25;26.20;51.10
11079;DHT22;5592;49.234;7.268;2023-06-05T15:16:50;26.10;50.80
11079;DHT22;5592;49.234;7.268;2023-06-05T15:19:16;26.10;50.20
11079;DHT22;5592;49.234;7.268;2023-06-05T15:21:42;26.00;52.10
11079;DHT22;5592;49.234;7.268;2023-06-05T15:24:07;26.00;53.80
11079;DHT22;5592;49.234;7.268;2023-06-05T15:26:33;26.10;53.50
11079;DHT22;5592;49.234;7.268;2023-06-05T15:28:58;26.10;52.70
11079;DHT22;5592;49.234;7.268;2023-06-05T15:31:24;25.90;51.40
11079;DHT22;5592;49.234;7.268;2023-06-05T15:33:50;25.70;52.00
11079;DHT22;5592;49.234;7.268;2023-06-05T15:36:15;25.60;52.20
11079;DHT22;5592;49.234;7.268;2023-06-05T15:38:41;25.50;52.20
11079;DHT22;5592;49.234;7.268;2023-06-05T15:41:06;25.60;51.80
11079;DHT22;5592;49.234;7.268;2023-06-05T15:43:32;25.60;50.90
11079;DHT22;5592;49.234;7.268;2023-06-05T15:45:57;25.60;51.10
11079;DHT22;5592;49.234;7.268;2023-06-05T15:48:23;25.60;50.80
11079;DHT22;5592;49.234;7.268;2023-06-05T15:50:50;25.60;52.30
11079;DHT22;5592;49.234;7.268;2023-06-05T15:53:20;25.70;52.60
11079;DHT22;5592;49.234;7.268;2023-06-05T15:55:46;25.70;51.90
11079;DHT22;5592;49.234;7.268;2023-06-05T15:58:12;25.70;50.90
11079;DHT22;5592;49.234;7.268;2023-06-05T16:00:37;25.60;51.50
11079;DHT22;5592;49.234;7.268;2023-06-05T16:03:03;25.60;49.50
11079;DHT22;5592;49.234;7.268;2023-06-05T16:05:29;25.50;50.10
11079;DHT22;5592;49.234;7.268;2023-06-05T16:07:54;25.50;52.10
11079;DHT22;5592;49.234;7.268;2023-06-05T16:10:20;25.50;52.80
11079;DHT22;5592;49.234;7.268;2023-06-05T16:12:46;25.50;52.60
11079;DHT22;5592;49.234;7.268;2023-06-05T16:15:12;25.40;53.40
11079;DHT22;5592;49.234;7.268;2023-06-05T16:17:39;25.30;52.00
11079;DHT22;5592;49.234;7.268;2023-06-05T16:20:06;25.30;54.30
11079;DHT22;5592;49.234;7.268;2023-06-05T16:22:33;25.20;54.20
11079;DHT22;5592;49.234;7.268;2023-06-05T16:24:58;25.20;53.70
11079;DHT22;5592;49.234;7.268;2023-06-05T16:27:24;25.30;52.60
11079;DHT22;5592;49.234;7.268;2023-06-05T16:29:50;25.30;52.20
11079;DHT22;5592;49.234;7.268;2023-06-05T16:32:17;25.40;51.80
11079;DHT22;5592;49.234;7.268;2023-06-05T16:34:42;25.20;52.10